Brandywine — WDB9646 — position and weather

sailwx.info

Track history (hours):
 
Tides and Currents Weather Stations Pressure Air Temp Water Temp Dewpoint Dewpoint Depression Visibility Wind Speed Wind Dir Waves Ship Positions

Brandywine

Owner: OVERALLS LEASING LLC, LEWES, DE. More information available from US FCC via Universal Licensing System and Coast Guard Vessel Documentation Center.

Last reported at 2017-Nov-18 13:22 UTC. Time now 2017-Nov-19 08:28 UTC.
Position N 38°48' W 075°10'.

Length 16 m.

Type: . MMSI: 366980160.

Date/timePositionNaut miles runAvg speedWind from/ knotsBaromVisibWave heightAir tempDewpointWater temp
2017-Nov-18 13:22N 38°48' W 075°10'0 0.0
2017-Nov-18 12:56N 38°48' W 075°10'0 0.0
2017-Nov-18 12:29N 38°48' W 075°10'0 0.0
2017-Nov-18 11:35N 38°48' W 075°10'0 0.0
2017-Nov-18 11:11N 38°48' W 075°10'0 0.0
2017-Nov-18 10:34N 38°48' W 075°10'0 0.0
2017-Nov-18 10:13N 38°48' W 075°10'0 0.0
2017-Nov-18 09:46N 38°48' W 075°10'0 0.0
2017-Nov-18 09:10N 38°48' W 075°10'0 0.0
2017-Nov-18 08:21N 38°48' W 075°10'0 0.0
2017-Nov-18 07:58N 38°48' W 075°10'2 0.1
2017-Nov-16 13:12N 38°47' W 075°07'0 0.0
2017-Nov-16 12:37N 38°47' W 075°07'214.6
2017-Nov-16 12:28N 38°49' W 075°07'2 4.0
2017-Nov-16 11:59N 38°50' W 075°05'4 0.1
2017-Nov-14 09:46N 38°47' W 075°07'0 0.0
2017-Nov-14 09:22N 38°47' W 075°07'0 0.0
2017-Nov-14 08:59N 38°47' W 075°07'0 0.0
2017-Nov-14 08:30N 38°47' W 075°07'3 6.9
2017-Nov-14 08:01N 38°47' W 075°03'3 6.2
2017-Nov-14 07:28N 38°47' W 075°07'2 0.6
2017-Nov-14 04:50N 38°49' W 075°07'2 0.1
2017-Nov-12 22:32N 38°47' W 075°07'0 0.0
2017-Nov-12 21:18N 38°47' W 075°07'0 0.0
2017-Nov-12 17:48N 38°47' W 075°07'0 0.0
2017-Nov-12 15:33N 38°47' W 075°07'0 0.0
2017-Nov-12 15:30N 38°47' W 075°07'0 0.0
2017-Nov-12 14:37N 38°47' W 075°07'0 0.0
2017-Nov-12 14:27N 38°47' W 075°07'0 0.0
2017-Nov-12 06:03N 38°47' W 075°07'0 0.0
2017-Nov-10 08:54N 38°47' W 075°07'0 0.0
2017-Nov-10 08:30N 38°47' W 075°07'0 0.0
2017-Nov-10 08:00N 38°47' W 075°07'0 0.0
2017-Nov-10 07:30N 38°47' W 075°07'0 0.0
2017-Nov-10 06:58N 38°47' W 075°07'0 0.0
2017-Nov-10 02:36N 38°47' W 075°07'  
Track history (hours):
 
Tides and Currents Weather Stations Pressure Air Temp Water Temp Dewpoint Dewpoint Depression Visibility Wind Speed Wind Dir Waves Ship Positions

Brandywine

Owner: OVERALLS LEASING LLC, LEWES, DE. More information available from US FCC via Universal Licensing System and Coast Guard Vessel Documentation Center.

Last reported at 2017-Nov-18 13:22 UTC. Time now 2017-Nov-19 08:28 UTC.
Position N 38°48' W 075°10'.

Length 16 m.

Type: . MMSI: 366980160.

Date/timePositionNaut miles runAvg speedWind from/ knotsBaromVisibWave heightAir tempDewpointWater temp
2017-Nov-18 13:22N 38°48' W 075°10'0 0.0
2017-Nov-18 12:56N 38°48' W 075°10'0 0.0
2017-Nov-18 12:29N 38°48' W 075°10'0 0.0
2017-Nov-18 11:35N 38°48' W 075°10'0 0.0
2017-Nov-18 11:11N 38°48' W 075°10'0 0.0
2017-Nov-18 10:34N 38°48' W 075°10'0 0.0
2017-Nov-18 10:13N 38°48' W 075°10'0 0.0
2017-Nov-18 09:46N 38°48' W 075°10'0 0.0
2017-Nov-18 09:10N 38°48' W 075°10'0 0.0
2017-Nov-18 08:21N 38°48' W 075°10'0 0.0
2017-Nov-18 07:58N 38°48' W 075°10'2 0.1
2017-Nov-16 13:12N 38°47' W 075°07'0 0.0
2017-Nov-16 12:37N 38°47' W 075°07'214.6
2017-Nov-16 12:28N 38°49' W 075°07'2 4.0
2017-Nov-16 11:59N 38°50' W 075°05'4 0.1
2017-Nov-14 09:46N 38°47' W 075°07'0 0.0
2017-Nov-14 09:22N 38°47' W 075°07'0 0.0
2017-Nov-14 08:59N 38°47' W 075°07'0 0.0
2017-Nov-14 08:30N 38°47' W 075°07'3 6.9
2017-Nov-14 08:01N 38°47' W 075°03'3 6.2
2017-Nov-14 07:28N 38°47' W 075°07'2 0.6
2017-Nov-14 04:50N 38°49' W 075°07'2 0.1
2017-Nov-12 22:32N 38°47' W 075°07'0 0.0
2017-Nov-12 21:18N 38°47' W 075°07'0 0.0
2017-Nov-12 17:48N 38°47' W 075°07'0 0.0
2017-Nov-12 15:33N 38°47' W 075°07'0 0.0
2017-Nov-12 15:30N 38°47' W 075°07'0 0.0
2017-Nov-12 14:37N 38°47' W 075°07'0 0.0
2017-Nov-12 14:27N 38°47' W 075°07'0 0.0
2017-Nov-12 06:03N 38°47' W 075°07'0 0.0
2017-Nov-10 08:54N 38°47' W 075°07'0 0.0
2017-Nov-10 08:30N 38°47' W 075°07'0 0.0
2017-Nov-10 08:00N 38°47' W 075°07'0 0.0
2017-Nov-10 07:30N 38°47' W 075°07'0 0.0
2017-Nov-10 06:58N 38°47' W 075°07'0 0.0
2017-Nov-10 02:36N 38°47' W 075°07'  

Dump ship's entire track history